Schedule Details


Flight Number: CTN470
Departure: Franjo Tudman (LDZA) at 09:00
Arrival: Charles-de-gaulle (LFPG) at 11:05
Route: PODET DCT TIBRO/N0453F380 UY9 NAXAV UZ613 RONAG UL613 HOC UL856 MOROK/N0454F360 UL856 PENDU/N0459F330 UL856 GIVRI/N0458F320 UM982 TINIL

Weather Information
LDZA 290100Z VRB02KT 9999 BKN007 OVC036 02/01 Q1009 TEMPO -TSRA FEW040CB
LFPG 290100Z 24008KT 9999 SCT034 BKN190 04/02 Q1008 NOSIG
Schedule Frequency

Route Map